Time;durP1;ratioP1;P1;durP2;ratioP2;P2;SDS_P1;SDS_P2;PMS_P1;PMS_P2;Temp;Humidity;BMP_temperature;BMP_pressure;BME280_temperature;BME280_humidity;BME280_pressure;Samples;Min_cycle;Max_cycle;Signal;HPM_P1;HPM_P2
2022/09/26 00:01:43;;;;;;;17.60;15.60;;;;;;;;;;5052341;28;20076;-77
2022/09/26 00:04:16;;;;;;;15.55;13.95;;;;;;;;;;5051275;28;20041;-78
2022/09/26 00:06:48;;;;;;;15.75;14.15;;;;;;;;;;5052160;28;20069;-77
2022/09/26 00:09:16;;;;;;;15.10;13.48;;;;;;;;;;5052657;28;20490;-77
2022/09/26 00:11:43;;;;;;;15.32;13.07;;;;;;;;;;5050026;28;20051;-76
2022/09/26 00:14:13;;;;;;;14.75;13.00;;;;;;;;;;5033823;28;20407;-77
2022/09/26 00:16:40;;;;;;;17.63;13.25;;;;;;;;;;5049643;28;20072;-78
2022/09/26 00:19:08;;;;;;;15.63;13.90;;;;;;;;;;5033799;28;20083;-77
2022/09/26 00:21:35;;;;;;;18.77;14.77;;;;;;;;;;5051755;28;20056;-78
2022/09/26 00:24:03;;;;;;;15.82;13.60;;;;;;;;;;5050760;28;20721;-80
2022/09/26 00:26:31;;;;;;;16.50;14.50;;;;;;;;;;5049168;28;20041;-77
2022/09/26 00:29:00;;;;;;;19.48;15.15;;;;;;;;;;5032557;28;20124;-78
2022/09/26 00:31:28;;;;;;;18.02;14.90;;;;;;;;;;5030782;28;20045;-78
2022/09/26 00:33:56;;;;;;;16.77;14.98;;;;;;;;;;5030286;28;20132;-77
2022/09/26 00:36:23;;;;;;;16.15;14.43;;;;;;;;;;5028759;28;20515;-77
2022/09/26 00:39:04;;;;;;;20.98;16.23;;;;;;;;;;5038891;28;20123;-77
2022/09/26 00:41:32;;;;;;;17.77;15.13;;;;;;;;;;5047916;28;20037;-77
2022/09/26 00:43:59;;;;;;;18.60;15.27;;;;;;;;;;5044002;28;20060;-77
2022/09/26 00:46:37;;;;;;;20.10;15.93;;;;;;;;;;5047561;28;20075;-77
2022/09/26 00:49:21;;;;;;;19.83;16.45;;;;;;;;;;5063867;28;20052;-78
2022/09/26 00:51:52;;;;;;;25.15;16.45;;;;;;;;;;5047500;28;20045;-77
2022/09/26 00:54:19;;;;;;;18.17;16.15;;;;;;;;;;5063671;28;20049;-78
2022/09/26 00:56:48;;;;;;;19.52;15.70;;;;;;;;;;5048382;28;20128;-77
2022/09/26 00:59:27;;;;;;;16.85;14.90;;;;;;;;;;5046474;28;20052;-77
2022/09/26 01:01:55;;;;;;;19.35;16.27;;;;;;;;;;5049405;28;20044;-77
2022/09/26 01:04:24;;;;;;;17.42;15.55;;;;;;;;;;5047848;28;20144;-76
2022/09/26 01:06:52;;;;;;;19.50;16.10;;;;;;;;;;5047738;28;20083;-77
2022/09/26 01:09:19;;;;;;;20.75;16.30;;;;;;;;;;5048598;28;20130;-78
2022/09/26 01:11:47;;;;;;;18.17;14.98;;;;;;;;;;5050112;28;20044;-77
2022/09/26 01:14:18;;;;;;;17.50;15.57;;;;;;;;;;5048444;28;20113;-77
2022/09/26 01:16:47;;;;;;;19.13;15.55;;;;;;;;;;5049569;28;20083;-76
2022/09/26 01:19:22;;;;;;;17.67;15.35;;;;;;;;;;5050052;28;20041;-78
2022/09/26 01:21:49;;;;;;;17.45;15.10;;;;;;;;;;5049921;28;20044;-77
2022/09/26 01:24:30;;;;;;;18.85;16.00;;;;;;;;;;5064416;28;20075;-79
2022/09/26 01:27:08;;;;;;;19.13;16.35;;;;;;;;;;5050149;28;20055;-77
2022/09/26 01:29:54;;;;;;;17.23;15.18;;;;;;;;;;5048720;28;20045;-77
2022/09/26 01:32:48;;;;;;;19.45;16.05;;;;;;;;;;5031923;28;20036;-77
2022/09/26 01:35:27;;;;;;;19.08;14.52;;;;;;;;;;5048141;28;20139;-77
2022/09/26 01:38:10;;;;;;;19.55;15.20;;;;;;;;;;5049960;28;20052;-77
2022/09/26 01:40:50;;;;;;;15.27;13.70;;;;;;;;;;5045292;28;20226;-77
2022/09/26 01:43:33;;;;;;;15.20;13.57;;;;;;;;;;5045570;28;20041;-76
2022/09/26 01:46:09;;;;;;;17.77;14.98;;;;;;;;;;5028462;28;20431;-77
2022/09/26 01:48:39;;;;;;;17.35;15.20;;;;;;;;;;5053011;28;20156;-77
2022/09/26 01:51:14;;;;;;;17.38;13.70;;;;;;;;;;5042406;28;20541;-78
2022/09/26 01:53:45;;;;;;;18.63;14.80;;;;;;;;;;5048406;28;20044;-77
2022/09/26 01:56:15;;;;;;;17.00;14.43;;;;;;;;;;5047952;28;20051;-79
2022/09/26 01:58:45;;;;;;;16.38;14.30;;;;;;;;;;5048342;28;20040;-79
2022/09/26 02:01:14;;;;;;;17.65;14.82;;;;;;;;;;5049574;28;20103;-77
2022/09/26 02:04:00;;;;;;;18.08;13.98;;;;;;;;;;5048047;28;20053;-78
2022/09/26 02:06:36;;;;;;;18.98;14.48;;;;;;;;;;5045720;28;20033;-77
2022/09/26 02:09:35;;;;;;;15.90;14.23;;;;;;;;;;5044890;28;20129;-77
2022/09/26 02:12:05;;;;;;;16.60;14.80;;;;;;;;;;5005151;28;20049;-77
2022/09/26 02:14:37;;;;;;;18.02;14.70;;;;;;;;;;5063915;28;20033;-77
2022/09/26 02:17:08;;;;;;;16.38;14.63;;;;;;;;;;5031498;28;20094;-77
2022/09/26 02:19:45;;;;;;;16.58;14.23;;;;;;;;;;5049185;28;20048;-78
2022/09/26 02:22:14;;;;;;;18.35;14.10;;;;;;;;;;5043804;28;20043;-77
2022/09/26 02:24:41;;;;;;;17.40;15.60;;;;;;;;;;5063831;28;20064;-78
2022/09/26 02:27:09;;;;;;;16.75;14.82;;;;;;;;;;5051248;28;20564;-77
2022/09/26 02:29:39;;;;;;;16.80;14.93;;;;;;;;;;5053372;28;20052;-78
2022/09/26 02:32:14;;;;;;;17.00;15.20;;;;;;;;;;5068827;28;20037;-77
2022/09/26 02:34:42;;;;;;;17.85;15.63;;;;;;;;;;5067772;28;20045;-77
2022/09/26 02:37:12;;;;;;;22.13;16.45;;;;;;;;;;5051664;28;20048;-79
2022/09/26 02:39:40;;;;;;;17.20;15.30;;;;;;;;;;5052624;28;20037;-78
2022/09/26 02:42:24;;;;;;;18.67;15.65;;;;;;;;;;5035012;28;20041;-77
2022/09/26 02:45:03;;;;;;;20.52;17.48;;;;;;;;;;5090309;23;20130;-77
2022/09/26 02:47:54;;;;;;;17.83;15.93;;;;;;;;;;5078867;28;20039;-78
2022/09/26 02:50:38;;;;;;;17.60;15.60;;;;;;;;;;5074499;28;20383;-77
2022/09/26 02:53:20;;;;;;;19.45;16.60;;;;;;;;;;5074686;28;20079;-77
2022/09/26 02:55:59;;;;;;;17.90;16.10;;;;;;;;;;5070508;28;20066;-77
2022/09/26 02:58:46;;;;;;;18.10;16.30;;;;;;;;;;5068991;28;20032;-81
2022/09/26 03:01:21;;;;;;;18.55;16.65;;;;;;;;;;5057954;28;20074;-77
2022/09/26 03:04:04;;;;;;;17.48;15.77;;;;;;;;;;5056193;28;20048;-77
2022/09/26 03:06:36;;;;;;;18.50;16.30;;;;;;;;;;5053729;28;20049;-80
2022/09/26 03:09:04;;;;;;;17.60;15.75;;;;;;;;;;5054731;28;20059;-78
2022/09/26 03:11:33;;;;;;;18.27;15.98;;;;;;;;;;5054523;28;20125;-77
2022/09/26 03:14:01;;;;;;;16.80;15.15;;;;;;;;;;5063543;28;20039;-78
2022/09/26 03:16:33;;;;;;;16.13;14.25;;;;;;;;;;5060991;28;20044;-77
2022/09/26 03:19:21;;;;;;;17.40;15.70;;;;;;;;;;5057239;28;20134;-78
2022/09/26 03:21:48;;;;;;;13.13;11.93;;;;;;;;;;5055633;28;20108;-77
2022/09/26 03:24:17;;;;;;;13.80;12.48;;;;;;;;;;5073538;28;20064;-77
2022/09/26 03:26:45;;;;;;;15.25;13.55;;;;;;;;;;5072411;28;20039;-77
2022/09/26 03:29:13;;;;;;;16.05;14.35;;;;;;;;;;5073850;28;20044;-77
2022/09/26 03:31:41;;;;;;;15.88;14.02;;;;;;;;;;5057440;28;20139;-77
2022/09/26 03:34:09;;;;;;;15.40;13.90;;;;;;;;;;5073626;28;20048;-77
2022/09/26 03:36:38;;;;;;;14.85;13.45;;;;;;;;;;5057008;28;20049;-77
2022/09/26 03:39:08;;;;;;;15.35;13.73;;;;;;;;;;5053733;28;20037;-78
2022/09/26 03:41:41;;;;;;;14.57;13.05;;;;;;;;;;5056726;28;20036;-78
2022/09/26 03:44:20;;;;;;;15.32;13.75;;;;;;;;;;5056970;28;20062;-77
2022/09/26 03:47:03;;;;;;;18.52;15.32;;;;;;;;;;5091864;28;20119;-78
2022/09/26 03:49:33;;;;;;;12.48;11.30;;;;;;;;;;5073822;28;20473;-77
2022/09/26 03:52:02;;;;;;;16.05;14.52;;;;;;;;;;5072991;28;20496;-77
2022/09/26 03:54:30;;;;;;;13.73;12.43;;;;;;;;;;5073242;28;20044;-78
2022/09/26 03:56:57;;;;;;;12.95;11.75;;;;;;;;;;5071281;28;20097;-77
2022/09/26 03:59:24;;;;;;;15.35;13.75;;;;;;;;;;5071910;28;20068;-78
2022/09/26 04:01:51;;;;;;;14.85;13.45;;;;;;;;;;5073454;28;20400;-82
2022/09/26 04:04:19;;;;;;;15.60;14.10;;;;;;;;;;5089951;28;20508;-77
2022/09/26 04:06:49;;;;;;;15.85;14.25;;;;;;;;;;5056351;28;20542;-78
2022/09/26 04:09:17;;;;;;;16.13;14.52;;;;;;;;;;5073232;28;20051;-77
2022/09/26 04:11:49;;;;;;;17.90;15.98;;;;;;;;;;5073379;28;20275;-78
2022/09/26 04:14:17;;;;;;;16.70;14.95;;;;;;;;;;5055336;28;20051;-80
2022/09/26 04:16:48;;;;;;;18.98;14.43;;;;;;;;;;5073040;28;20126;-77
2022/09/26 04:19:35;;;;;;;16.27;11.88;;;;;;;;;;5076339;28;20158;-77
2022/09/26 04:22:03;;;;;;;17.52;13.98;;;;;;;;;;5056248;28;20461;-77
2022/09/26 04:24:32;;;;;;;15.45;13.13;;;;;;;;;;5072371;28;20102;-77
2022/09/26 04:26:59;;;;;;;14.07;12.70;;;;;;;;;;5072712;28;20047;-77
2022/09/26 04:29:28;;;;;;;14.50;13.10;;;;;;;;;;5055957;28;20089;-77
2022/09/26 04:32:14;;;;;;;15.15;13.55;;;;;;;;;;5086199;28;20037;-77
2022/09/26 04:35:05;;;;;;;14.02;12.52;;;;;;;;;;5086554;28;20501;-77
2022/09/26 04:37:35;;;;;;;13.63;12.32;;;;;;;;;;5072726;28;20118;-77
2022/09/26 04:40:03;;;;;;;18.48;13.30;;;;;;;;;;5089150;28;20105;-77
2022/09/26 04:42:35;;;;;;;14.30;12.25;;;;;;;;;;5072540;28;20040;-77
2022/09/26 04:45:04;;;;;;;14.90;13.30;;;;;;;;;;5089406;28;20052;-77
2022/09/26 04:47:32;;;;;;;13.25;11.95;;;;;;;;;;5071020;28;20122;-77
2022/09/26 04:50:34;;;;;;;17.17;12.85;;;;;;;;;;5080534;28;20032;-78
2022/09/26 04:53:05;;;;;;;14.13;12.73;;;;;;;;;;5086156;28;20102;-80
2022/09/26 04:55:36;;;;;;;13.18;11.85;;;;;;;;;;5048280;28;20136;-77
2022/09/26 04:58:04;;;;;;;11.98;10.85;;;;;;;;;;5075910;28;20143;-78
2022/09/26 05:00:31;;;;;;;12.98;11.43;;;;;;;;;;5068494;28;20614;-77
2022/09/26 05:03:04;;;;;;;13.23;11.40;;;;;;;;;;5086312;28;20035;-77
2022/09/26 05:05:32;;;;;;;12.85;11.60;;;;;;;;;;5050577;28;20105;-78
2022/09/26 05:07:59;;;;;;;12.38;11.18;;;;;;;;;;5054083;28;20133;-78
2022/09/26 05:10:28;;;;;;;13.70;12.40;;;;;;;;;;5070572;28;20050;-78
2022/09/26 05:13:02;;;;;;;13.45;12.13;;;;;;;;;;5071857;28;20143;-78
2022/09/26 05:15:29;;;;;;;16.02;12.00;;;;;;;;;;5051339;28;20090;-77
2022/09/26 05:17:58;;;;;;;14.00;11.60;;;;;;;;;;5068669;28;20037;-77
2022/09/26 05:20:30;;;;;;;14.98;12.77;;;;;;;;;;5070499;28;20404;-82
2022/09/26 05:23:03;;;;;;;13.10;11.80;;;;;;;;;;5071144;28;20039;-77
2022/09/26 05:28:22;;;;;;;14.68;13.27;;;;;;;;;;5071652;28;20035;-77
2022/09/26 05:30:50;;;;;;;14.45;11.75;;;;;;;;;;5088397;28;20106;-77
2022/09/26 05:33:20;;;;;;;13.18;11.95;;;;;;;;;;5070978;28;20048;-77
2022/09/26 05:35:52;;;;;;;14.63;12.25;;;;;;;;;;5057786;28;20455;-79
2022/09/26 05:38:19;;;;;;;13.77;12.38;;;;;;;;;;5060491;28;20043;-77
2022/09/26 05:40:56;;;;;;;13.02;11.70;;;;;;;;;;5059480;28;20135;-75
2022/09/26 05:43:26;;;;;;;13.90;12.10;;;;;;;;;;5050456;28;20047;-78
2022/09/26 05:45:59;;;;;;;12.50;11.18;;;;;;;;;;5054595;28;20044;-78
2022/09/26 05:48:33;;;;;;;12.65;11.38;;;;;;;;;;5069805;28;20059;-78
2022/09/26 05:51:10;;;;;;;12.40;11.30;;;;;;;;;;5071081;28;20096;-78
2022/09/26 05:53:41;;;;;;;13.05;11.63;;;;;;;;;;5055431;28;20138;-78
2022/09/26 05:56:09;;;;;;;11.95;10.75;;;;;;;;;;5070511;28;20048;-80
2022/09/26 05:59:01;;;;;;;12.90;11.52;;;;;;;;;;5085397;28;20040;-78
2022/09/26 06:01:47;;;;;;;13.80;11.82;;;;;;;;;;5086148;28;20505;-78
2022/09/26 06:04:28;;;;;;;13.68;11.70;;;;;;;;;;5070772;28;20040;-78
2022/09/26 06:07:15;;;;;;;11.07;10.10;;;;;;;;;;5030577;28;20109;-78
2022/09/26 06:09:43;;;;;;;11.55;10.38;;;;;;;;;;5088222;28;20058;-78
2022/09/26 06:12:20;;;;;;;11.27;10.27;;;;;;;;;;5071335;28;20043;-78
2022/09/26 06:14:47;;;;;;;11.48;10.23;;;;;;;;;;5082378;28;20047;-78
2022/09/26 06:17:14;;;;;;;10.38;9.48;;;;;;;;;;5068434;28;20044;-78
2022/09/26 06:19:43;;;;;;;11.15;10.05;;;;;;;;;;5051492;28;20029;-78
2022/09/26 06:22:10;;;;;;;10.57;9.60;;;;;;;;;;5050102;28;20044;-78
2022/09/26 06:24:38;;;;;;;10.45;9.50;;;;;;;;;;5039126;28;20051;-78
2022/09/26 06:27:09;;;;;;;10.87;9.57;;;;;;;;;;5068073;28;20102;-83
2022/09/26 06:29:37;;;;;;;13.32;9.15;;;;;;;;;;5084058;28;20036;-77
2022/09/26 06:32:04;;;;;;;11.95;10.75;;;;;;;;;;5078634;28;20060;-78
2022/09/26 06:34:50;;;;;;;10.93;8.93;;;;;;;;;;5069954;28;20040;-78
2022/09/26 06:37:38;;;;;;;10.65;8.77;;;;;;;;;;5054653;28;20059;-79
2022/09/26 06:40:07;;;;;;;9.55;8.73;;;;;;;;;;5071126;28;20404;-78
2022/09/26 06:42:37;;;;;;;8.75;8.00;;;;;;;;;;5071839;28;20099;-78
2022/09/26 06:45:25;;;;;;;10.02;9.02;;;;;;;;;;5055425;28;20052;-78
2022/09/26 06:48:08;;;;;;;10.20;9.20;;;;;;;;;;5072019;28;20040;-78
2022/09/26 06:50:55;;;;;;;9.55;8.13;;;;;;;;;;5090142;28;20036;-78
2022/09/26 06:53:27;;;;;;;9.48;8.68;;;;;;;;;;5061666;28;20049;-82
2022/09/26 06:55:57;;;;;;;9.63;8.75;;;;;;;;;;5059722;28;20050;-78
2022/09/26 06:58:26;;;;;;;9.10;8.15;;;;;;;;;;5060791;28;20040;-79
2022/09/26 07:01:08;;;;;;;8.88;7.95;;;;;;;;;;5066362;28;20405;-77
2022/09/26 07:03:42;;;;;;;7.05;6.45;;;;;;;;;;5077321;28;20123;-83
2022/09/26 07:06:30;;;;;;;8.15;7.50;;;;;;;;;;5078060;28;20036;-78
2022/09/26 07:08:58;;;;;;;9.02;8.20;;;;;;;;;;5058958;28;20056;-77
2022/09/26 07:11:46;;;;;;;10.30;9.27;;;;;;;;;;5058052;28;20294;-77
2022/09/26 07:14:33;;;;;;;8.50;7.80;;;;;;;;;;5061964;28;20063;-77
2022/09/26 07:17:14;;;;;;;8.82;7.93;;;;;;;;;;5063660;28;20110;-77
2022/09/26 07:19:45;;;;;;;9.88;8.30;;;;;;;;;;5062795;28;20672;-77
2022/09/26 07:22:45;;;;;;;9.00;7.35;;;;;;;;;;5059792;28;20047;-77
2022/09/26 07:25:13;;;;;;;8.40;7.60;;;;;;;;;;5087308;28;20045;-78
2022/09/26 07:27:40;;;;;;;9.20;8.30;;;;;;;;;;5072114;28;20040;-77
2022/09/26 07:30:08;;;;;;;9.73;8.23;;;;;;;;;;5071063;28;20135;-78
2022/09/26 07:32:46;;;;;;;8.45;7.63;;;;;;;;;;5071235;28;20060;-79
2022/09/26 07:35:36;;;;;;;8.35;7.65;;;;;;;;;;5071267;28;20036;-77
2022/09/26 07:38:04;;;;;;;8.15;7.45;;;;;;;;;;5065180;28;20505;-78
2022/09/26 07:40:31;;;;;;;7.90;7.10;;;;;;;;;;5062887;28;20082;-77
2022/09/26 07:43:03;;;;;;;8.25;7.45;;;;;;;;;;5083310;28;20098;-76
2022/09/26 07:51:42;;;;;;;7.75;6.82;;;;;;;;;;5081472;28;20055;-76
2022/09/26 07:54:14;;;;;;;8.45;7.70;;;;;;;;;;5065588;28;20036;-77
2022/09/26 07:57:02;;;;;;;8.52;7.72;;;;;;;;;;5084038;28;20024;-78
2022/09/26 07:59:37;;;;;;;8.60;7.88;;;;;;;;;;5087418;28;20032;-77
2022/09/26 08:02:24;;;;;;;7.55;6.95;;;;;;;;;;5078666;28;20540;-77
2022/09/26 08:04:53;;;;;;;10.73;8.13;;;;;;;;;;5064989;28;20032;-78
2022/09/26 08:07:28;;;;;;;8.27;7.57;;;;;;;;;;5089443;28;20067;-81
2022/09/26 08:10:01;;;;;;;8.05;7.00;;;;;;;;;;5075282;28;20126;-79
2022/09/26 08:12:48;;;;;;;10.07;7.97;;;;;;;;;;5087864;28;20040;-79
2022/09/26 08:15:35;;;;;;;8.82;7.35;;;;;;;;;;5081186;28;20152;-79
2022/09/26 08:18:05;;;;;;;8.05;7.35;;;;;;;;;;5048828;28;20039;-77
2022/09/26 08:20:32;;;;;;;7.85;7.13;;;;;;;;;;5065601;28;20163;-78
2022/09/26 08:23:00;;;;;;;7.43;6.72;;;;;;;;;;5072832;28;20040;-78
2022/09/26 08:25:28;;;;;;;7.18;6.47;;;;;;;;;;5052459;28;20048;-78
2022/09/26 08:28:06;;;;;;;7.10;6.50;;;;;;;;;;5092884;28;20095;-78
2022/09/26 08:30:33;;;;;;;7.60;6.90;;;;;;;;;;5086791;28;20047;-78
2022/09/26 08:33:02;;;;;;;6.18;5.63;;;;;;;;;;5078926;28;20114;-78
2022/09/26 08:35:37;;;;;;;7.13;6.43;;;;;;;;;;5086234;28;20090;-79
2022/09/26 08:38:30;;;;;;;6.63;6.03;;;;;;;;;;5086493;28;20040;-79
2022/09/26 08:41:22;;;;;;;7.85;6.22;;;;;;;;;;5084754;28;20485;-79
2022/09/26 08:44:22;;;;;;;5.30;4.90;;;;;;;;;;5111893;22;20294;-70
2022/09/26 08:47:33;;;;;;;5.82;5.28;;;;;;;;;;5061487;27;20523;-70
2022/09/26 08:50:44;;;;;;;5.40;4.90;;;;;;;;;;5084685;28;20032;-70
2022/09/26 08:53:40;;;;;;;5.53;4.82;;;;;;;;;;5068376;28;20093;-70
2022/09/26 08:56:16;;;;;;;5.50;5.03;;;;;;;;;;5065444;28;20503;-70
2022/09/26 08:58:47;;;;;;;5.80;5.30;;;;;;;;;;5090760;28;20044;-70
2022/09/26 09:01:15;;;;;;;;;;;;;;;;;;5091915;28;20470;-70
2022/09/26 09:04:14;;;;;;;6.00;4.30;;;;;;;;;;5084608;28;20030;-70
2022/09/26 09:06:42;;;;;;;3.88;3.67;;;;;;;;;;5086328;28;20094;-71
2022/09/26 09:09:11;;;;;;;7.25;4.43;;;;;;;;;;5084547;28;20058;-70
2022/09/26 09:12:06;;;;;;;5.57;4.55;;;;;;;;;;5105875;28;20043;-69
2022/09/26 09:14:53;;;;;;;4.75;4.40;;;;;;;;;;5089329;28;20039;-70
2022/09/26 09:18:19;;;;;;;4.60;4.30;;;;;;;;;;5092635;28;20435;-70
2022/09/26 09:21:25;;;;;;;4.50;4.20;;;;;;;;;;5074445;28;20609;-71
2022/09/26 09:24:17;;;;;;;4.13;3.83;;;;;;;;;;5063369;28;20052;-71
2022/09/26 09:27:05;;;;;;;5.40;4.65;;;;;;;;;;5082466;28;20044;-71
2022/09/26 09:29:58;;;;;;;5.35;4.95;;;;;;;;;;5095811;28;20039;-69
2022/09/26 09:33:03;;;;;;;4.57;4.28;;;;;;;;;;5087003;28;20039;-70
2022/09/26 09:35:52;;;;;;;6.35;4.72;;;;;;;;;;5081591;28;20568;-70
2022/09/26 09:38:31;;;;;;;4.50;4.20;;;;;;;;;;5088534;28;20490;-70
2022/09/26 09:41:21;;;;;;;5.97;4.72;;;;;;;;;;5071496;28;20419;-71
2022/09/26 09:43:53;;;;;;;5.25;4.75;;;;;;;;;;5085839;28;20423;-70
2022/09/26 09:46:28;;;;;;;4.82;4.43;;;;;;;;;;5076208;28;20059;-70
2022/09/26 09:48:59;;;;;;;5.72;4.10;;;;;;;;;;5081405;28;20048;-70
2022/09/26 09:51:36;;;;;;;7.87;4.47;;;;;;;;;;5083131;28;20055;-71
2022/09/26 09:54:08;;;;;;;4.55;4.15;;;;;;;;;;5087066;28;20857;-70
2022/09/26 09:56:36;;;;;;;4.88;4.47;;;;;;;;;;5091050;28;20043;-70
2022/09/26 09:59:09;;;;;;;5.63;5.13;;;;;;;;;;5082278;28;20058;-70
2022/09/26 10:01:59;;;;;;;4.35;3.95;;;;;;;;;;5100387;28;20505;-70
2022/09/26 10:04:36;;;;;;;4.28;3.90;;;;;;;;;;5081009;28;20044;-70
2022/09/26 10:07:04;;;;;;;7.20;4.75;;;;;;;;;;5083013;28;20047;-70
2022/09/26 10:09:40;;;;;;;5.82;4.40;;;;;;;;;;5065037;28;20101;-70
2022/09/26 10:12:41;;;;;;;5.45;5.03;;;;;;;;;;5052372;28;20048;-70
2022/09/26 10:15:35;;;;;;;4.50;4.10;;;;;;;;;;5084064;28;20045;-70
2022/09/26 10:18:17;;;;;;;3.90;3.60;;;;;;;;;;5070132;28;20047;-70
2022/09/26 10:21:17;;;;;;;4.40;4.00;;;;;;;;;;5096223;28;20044;-70
2022/09/26 10:23:46;;;;;;;5.45;4.10;;;;;;;;;;5071314;28;20455;-70
2022/09/26 10:26:34;;;;;;;4.78;3.75;;;;;;;;;;5079740;28;20109;-70
2022/09/26 10:29:09;;;;;;;3.72;3.30;;;;;;;;;;5066088;28;20342;-70
2022/09/26 10:31:41;;;;;;;4.35;4.03;;;;;;;;;;5089892;28;20044;-71
2022/09/26 10:34:26;;;;;;;4.22;3.83;;;;;;;;;;5090669;28;20052;-70
2022/09/26 10:36:55;;;;;;;4.80;4.40;;;;;;;;;;5065109;28;20036;-68
2022/09/26 10:42:18;;;;;;;4.70;4.30;;;;;;;;;;5073892;28;20040;-69
2022/09/26 10:44:49;;;;;;;5.47;4.22;;;;;;;;;;5091216;28;20043;-70
2022/09/26 10:47:19;;;;;;;;;;;;;;;;;;5095689;28;20195;-70
2022/09/26 10:50:15;;;;;;;5.90;3.97;;;;;;;;;;5087552;28;20036;-70
2022/09/26 10:53:07;;;;;;;4.00;3.70;;;;;;;;;;5090947;28;20042;-70
2022/09/26 10:55:39;;;;;;;4.10;3.80;;;;;;;;;;5089376;28;20044;-70
2022/09/26 10:58:08;;;;;;;4.05;3.65;;;;;;;;;;5090028;28;20060;-70
2022/09/26 11:00:43;;;;;;;3.63;3.30;;;;;;;;;;5067848;28;20048;-71
2022/09/26 11:03:19;;;;;;;3.78;2.60;;;;;;;;;;5053732;28;20044;-71
2022/09/26 11:06:31;;;;;;;2.60;2.50;;;;;;;;;;5043325;28;20049;-71
2022/09/26 11:09:29;;;;;;;2.63;2.42;;;;;;;;;;5021665;28;20119;-71
2022/09/26 11:12:38;;;;;;;2.60;1.80;;;;;;;;;;5026445;28;20057;-70
2022/09/26 11:15:11;;;;;;;2.25;2.03;;;;;;;;;;5078050;28;20071;-70
2022/09/26 11:17:49;;;;;;;4.30;2.22;;;;;;;;;;5088797;28;20063;-71
2022/09/26 11:20:36;;;;;;;2.28;2.10;;;;;;;;;;5089467;28;20097;-70
2022/09/26 11:23:39;;;;;;;2.40;2.20;;;;;;;;;;5088950;28;20036;-69
2022/09/26 11:26:18;;;;;;;2.58;2.35;;;;;;;;;;5006595;28;20061;-71
2022/09/26 11:29:02;;;;;;;3.05;2.70;;;;;;;;;;5061287;28;20105;-70
2022/09/26 11:31:47;;;;;;;5.10;2.50;;;;;;;;;;5058294;28;20076;-69
2022/09/26 11:34:37;;;;;;;2.50;2.40;;;;;;;;;;5088006;28;20040;-70
2022/09/26 11:37:25;;;;;;;4.60;2.60;;;;;;;;;;5088480;28;20087;-70
2022/09/26 11:40:02;;;;;;;2.95;2.75;;;;;;;;;;5055681;28;20053;-71
2022/09/26 11:42:45;;;;;;;3.83;2.58;;;;;;;;;;5088792;28;20495;-69
2022/09/26 11:45:22;;;;;;;3.38;2.95;;;;;;;;;;5088308;28;20717;-70
2022/09/26 11:48:20;;;;;;;2.90;2.70;;;;;;;;;;5089578;28;20044;-70
2022/09/26 11:51:19;;;;;;;3.55;3.17;;;;;;;;;;5083423;28;20112;-69
2022/09/26 11:53:59;;;;;;;2.83;2.58;;;;;;;;;;5085194;28;20154;-70
2022/09/26 11:56:46;;;;;;;2.72;2.53;;;;;;;;;;5086617;28;20040;-70
2022/09/26 11:59:16;;;;;;;2.80;2.60;;;;;;;;;;5085501;28;20044;-70
2022/09/26 12:01:53;;;;;;;2.70;2.60;;;;;;;;;;5086893;28;20399;-68
2022/09/26 12:04:37;;;;;;;2.50;2.30;;;;;;;;;;5087253;28;20047;-70
2022/09/26 12:07:11;;;;;;;3.03;2.83;;;;;;;;;;5089579;28;20040;-70
2022/09/26 12:10:00;;;;;;;2.60;2.38;;;;;;;;;;5089658;28;20044;-70
2022/09/26 12:12:34;;;;;;;3.95;3.65;;;;;;;;;;5089740;28;20052;-70
2022/09/26 12:15:11;;;;;;;3.33;2.60;;;;;;;;;;5088232;28;20048;-69
2022/09/26 12:17:58;;;;;;;4.15;2.75;;;;;;;;;;5089731;28;20391;-71
2022/09/26 12:20:44;;;;;;;2.53;2.25;;;;;;;;;;5089871;28;20043;-69
2022/09/26 12:23:35;;;;;;;2.28;2.17;;;;;;;;;;5089167;28;20418;-70
2022/09/26 12:26:03;;;;;;;3.10;2.40;;;;;;;;;;5089022;28;20059;-69
2022/09/26 12:28:43;;;;;;;2.50;2.30;;;;;;;;;;5088632;28;20068;-70
2022/09/26 12:31:10;;;;;;;2.67;2.47;;;;;;;;;;5089396;28;20082;-70
2022/09/26 12:33:49;;;;;;;3.85;2.13;;;;;;;;;;5088014;28;20251;-72
2022/09/26 12:36:39;;;;;;;2.25;2.15;;;;;;;;;;5085787;28;20059;-70
2022/09/26 12:39:09;;;;;;;2.15;2.05;;;;;;;;;;5087837;28;20131;-70
2022/09/26 12:41:52;;;;;;;2.42;2.28;;;;;;;;;;5088569;28;20036;-70
2022/09/26 12:44:22;;;;;;;2.45;2.13;;;;;;;;;;5071650;28;20040;-70
2022/09/26 12:47:13;;;;;;;2.38;2.17;;;;;;;;;;5068902;28;20041;-70
2022/09/26 12:49:57;;;;;;;2.13;2.03;;;;;;;;;;5051609;28;20495;-71
2022/09/26 12:52:40;;;;;;;4.63;2.00;;;;;;;;;;5088165;28;20510;-70
2022/09/26 12:55:15;;;;;;;1.98;1.80;;;;;;;;;;5087782;28;20040;-70
2022/09/26 12:57:45;;;;;;;2.05;1.77;;;;;;;;;;5087750;28;20124;-70
2022/09/26 13:00:20;;;;;;;2.83;2.63;;;;;;;;;;5088582;28;20450;-72
2022/09/26 13:03:06;;;;;;;1.98;1.88;;;;;;;;;;5082410;28;20122;-70
2022/09/26 13:05:52;;;;;;;2.25;1.80;;;;;;;;;;5080247;28;20040;-71
2022/09/26 13:08:20;;;;;;;2.97;2.00;;;;;;;;;;5088110;28;20044;-71
2022/09/26 13:10:50;;;;;;;1.90;1.80;;;;;;;;;;5087383;28;20513;-70
2022/09/26 13:13:28;;;;;;;4.75;2.50;;;;;;;;;;5087333;28;20109;-71
2022/09/26 13:16:02;;;;;;;3.20;3.00;;;;;;;;;;5087040;28;20051;-71
2022/09/26 13:18:36;;;;;;;4.70;4.18;;;;;;;;;;5087457;28;20036;-71
2022/09/26 13:21:10;;;;;;;3.35;3.15;;;;;;;;;;5087117;28;20048;-71
2022/09/26 13:23:40;;;;;;;3.33;3.03;;;;;;;;;;5083625;28;20570;-71
2022/09/26 13:26:13;;;;;;;3.00;2.80;;;;;;;;;;5085305;28;20055;-71
2022/09/26 13:28:45;;;;;;;2.78;2.58;;;;;;;;;;5087370;28;20044;-71
2022/09/26 13:31:35;;;;;;;3.15;2.95;;;;;;;;;;5086281;28;20040;-71
2022/09/26 13:34:04;;;;;;;3.13;2.92;;;;;;;;;;5085670;28;20414;-72
2022/09/26 13:36:33;;;;;;;3.40;3.17;;;;;;;;;;5079004;28;20044;-72
2022/09/26 13:39:06;;;;;;;3.72;3.38;;;;;;;;;;5086861;28;20151;-72
2022/09/26 13:41:47;;;;;;;3.08;2.85;;;;;;;;;;5086248;28;20044;-71
2022/09/26 13:44:14;;;;;;;3.50;3.28;;;;;;;;;;5087234;28;20507;-72
2022/09/26 13:47:00;;;;;;;3.58;3.28;;;;;;;;;;5086704;28;20148;-72
2022/09/26 13:49:34;;;;;;;4.03;3.70;;;;;;;;;;5082320;28;20043;-72
2022/09/26 13:52:10;;;;;;;3.75;3.45;;;;;;;;;;5073493;28;20039;-72
2022/09/26 13:54:42;;;;;;;3.67;3.38;;;;;;;;;;5066971;28;20051;-71
2022/09/26 13:57:32;;;;;;;3.47;3.17;;;;;;;;;;5066829;28;20515;-71
2022/09/26 14:00:00;;;;;;;3.75;3.10;;;;;;;;;;5080178;28;20040;-71
2022/09/26 14:02:31;;;;;;;3.15;2.90;;;;;;;;;;5087197;28;20059;-71
2022/09/26 14:04:58;;;;;;;3.17;2.97;;;;;;;;;;5086348;28;20040;-71
2022/09/26 14:10:30;;;;;;;3.47;3.17;;;;;;;;;;5066576;28;20055;-71
2022/09/26 14:13:05;;;;;;;4.28;2.92;;;;;;;;;;5081368;28;20461;-71
2022/09/26 14:15:48;;;;;;;3.67;3.33;;;;;;;;;;5079543;28;20420;-72
2022/09/26 14:18:15;;;;;;;4.20;3.90;;;;;;;;;;5083930;28;20055;-71
2022/09/26 14:20:55;;;;;;;5.68;5.28;;;;;;;;;;5086708;28;20036;-70
2022/09/26 14:23:52;;;;;;;6.07;5.35;;;;;;;;;;5089639;28;20044;-71
2022/09/26 14:26:21;;;;;;;4.97;4.55;;;;;;;;;;5073634;28;20062;-71
2022/09/26 14:28:55;;;;;;;5.72;5.13;;;;;;;;;;5091614;28;20051;-71
2022/09/26 14:31:25;;;;;;;4.70;4.30;;;;;;;;;;5090987;28;20078;-72
2022/09/26 14:34:13;;;;;;;6.72;5.55;;;;;;;;;;5090399;28;20044;-72
2022/09/26 14:36:42;;;;;;;7.60;6.80;;;;;;;;;;5091160;28;20072;-71
2022/09/26 14:39:22;;;;;;;4.70;4.30;;;;;;;;;;5090493;28;20044;-71
2022/09/26 14:41:50;;;;;;;4.75;4.35;;;;;;;;;;5090199;28;20128;-71
2022/09/26 14:44:18;;;;;;;7.07;5.50;;;;;;;;;;5089499;28;20040;-72
2022/09/26 14:46:50;;;;;;;4.32;3.90;;;;;;;;;;5073245;28;20526;-71
2022/09/26 14:49:22;;;;;;;6.05;5.50;;;;;;;;;;5089516;28;20047;-72
2022/09/26 14:51:50;;;;;;;5.68;4.13;;;;;;;;;;5090707;28;20047;-71
2022/09/26 14:54:22;;;;;;;4.32;3.60;;;;;;;;;;5090745;28;20521;-71
2022/09/26 14:56:49;;;;;;;;;;;;;;;;;;5091246;28;20527;-71
2022/09/26 14:59:26;;;;;;;4.85;4.55;;;;;;;;;;5091252;28;19981;-70
2022/09/26 15:02:16;;;;;;;4.70;3.17;;;;;;;;;;5090146;28;20149;-70
2022/09/26 15:04:50;;;;;;;2.90;2.60;;;;;;;;;;5079682;28;20538;-72
2022/09/26 15:07:20;;;;;;;2.75;2.55;;;;;;;;;;5089929;28;20131;-72
2022/09/26 15:09:59;;;;;;;3.25;3.05;;;;;;;;;;5089790;28;20044;-72
2022/09/26 15:12:30;;;;;;;3.50;3.28;;;;;;;;;;5089891;28;20461;-72
2022/09/26 15:15:12;;;;;;;2.97;2.78;;;;;;;;;;5088156;28;20040;-71
2022/09/26 15:17:45;;;;;;;4.32;3.20;;;;;;;;;;5088600;28;20071;-71
2022/09/26 15:20:14;;;;;;;3.30;3.10;;;;;;;;;;5089368;28;20040;-71
2022/09/26 15:22:42;;;;;;;4.07;3.78;;;;;;;;;;5088102;28;20396;-70
2022/09/26 15:25:15;;;;;;;2.85;2.65;;;;;;;;;;5085687;28;20517;-72
2022/09/26 15:27:43;;;;;;;2.90;2.70;;;;;;;;;;5086973;28;20533;-72
2022/09/26 15:30:16;;;;;;;2.97;2.78;;;;;;;;;;5076805;28;20044;-73
2022/09/26 15:32:47;;;;;;;2.83;2.63;;;;;;;;;;5075824;28;20059;-72
2022/09/26 15:35:15;;;;;;;;;;;;;;;;;;5075952;28;20119;-71
2022/09/26 15:37:42;;;;;;;2.70;2.50;;;;;;;;;;5081809;28;19924;-72
2022/09/26 15:40:30;;;;;;;3.58;2.03;;;;;;;;;;5080890;28;20522;-72
2022/09/26 15:43:06;;;;;;;2.20;2.00;;;;;;;;;;5075798;28;20492;-71